Time;durP1;ratioP1;P1;durP2;ratioP2;P2;SDS_P1;SDS_P2;PMS_P1;PMS_P2;Temp;Humidity;BMP_temperature;BMP_pressure;BME280_temperature;BME280_humidity;BME280_pressure;Samples;Min_cycle;Max_cycle;Signal;HPM_P1;HPM_P2
2020/12/21 00:04:57;;;;;;;2.78;1.30;;;16.50;69.90;;;;;;10499497;28;20466;-56
2020/12/21 00:09:58;;;;;;;2.50;1.60;;;16.50;69.90;;;;;;10499023;28;20075;-57
2020/12/21 00:15:00;;;;;;;3.28;1.52;;;16.40;69.90;;;;;;10498580;28;20028;-56
2020/12/21 00:20:00;;;;;;;2.80;1.55;;;16.50;70.00;;;;;;10498917;28;20021;-56
2020/12/21 00:25:01;;;;;;;2.78;1.80;;;16.50;70.00;;;;;;10498580;28;20028;-56
2020/12/21 00:30:05;;;;;;;2.95;1.48;;;16.40;69.90;;;;;;10498253;28;20572;-56
2020/12/21 00:35:05;;;;;;;2.03;1.30;;;16.40;69.90;;;;;;10496717;28;20032;-57
2020/12/21 00:40:06;;;;;;;2.88;1.50;;;16.40;69.80;;;;;;10497911;28;20104;-56
2020/12/21 00:45:07;;;;;;;5.50;1.65;;;16.40;69.90;;;;;;10497689;28;20035;-56
2020/12/21 00:50:07;;;;;;;4.47;1.58;;;16.40;69.90;;;;;;10497498;28;20518;-56
2020/12/21 00:55:08;;;;;;;4.53;1.67;;;16.30;69.90;;;;;;10497131;28;20494;-56
2020/12/21 01:00:09;;;;;;;3.72;1.25;;;16.40;69.90;;;;;;10497202;28;20023;-57
2020/12/21 01:05:09;;;;;;;2.17;1.38;;;16.30;69.90;;;;;;10497320;28;20043;-57
2020/12/21 01:10:10;;;;;;;1.95;1.02;;;16.30;69.90;;;;;;10497223;28;20121;-57
2020/12/21 01:15:11;;;;;;;2.53;1.30;;;16.30;69.90;;;;;;10497033;28;20108;-57
2020/12/21 01:20:12;;;;;;;3.20;1.73;;;16.30;70.00;;;;;;10496561;28;20103;-56
2020/12/21 01:25:13;;;;;;;2.08;1.27;;;16.30;69.80;;;;;;10490029;28;20040;-57
2020/12/21 01:30:14;;;;;;;4.07;1.63;;;16.30;69.90;;;;;;10496595;28;20035;-56
2020/12/21 01:35:15;;;;;;;1.80;1.48;;;16.30;69.90;;;;;;10496421;28;20477;-57
2020/12/21 01:40:15;;;;;;;3.05;1.60;;;16.30;69.90;;;;;;10496383;28;20477;-57
2020/12/21 01:45:16;;;;;;;2.95;1.73;;;16.30;69.90;;;;;;10503378;28;20020;-56
2020/12/21 01:50:17;;;;;;;1.58;1.27;;;16.20;69.90;;;;;;10505036;28;20449;-57
2020/12/21 01:55:20;;;;;;;2.70;2.03;;;16.20;69.90;;;;;;10503522;28;20025;-57
2020/12/21 02:00:20;;;;;;;4.95;1.70;;;16.20;69.80;;;;;;10504157;28;20013;-57
2020/12/21 02:05:21;;;;;;;3.45;1.98;;;16.20;69.90;;;;;;10503950;28;20042;-56
2020/12/21 02:10:22;;;;;;;3.28;1.65;;;16.20;69.90;;;;;;10502696;28;20435;-56
2020/12/21 02:15:23;;;;;;;2.38;1.40;;;16.20;69.80;;;;;;10493482;28;20544;-57
2020/12/21 02:20:29;;;;;;;2.58;1.20;;;16.20;69.90;;;;;;10503519;28;20111;-57
2020/12/21 02:25:30;;;;;;;2.67;1.38;;;16.20;69.90;;;;;;10497394;28;20029;-57
2020/12/21 02:30:30;;;;;;;2.22;1.40;;;16.10;69.80;;;;;;10503209;28;20033;-57
2020/12/21 02:35:35;;;;;;;2.85;1.63;;;16.10;69.90;;;;;;10502803;28;20036;-56
2020/12/21 02:40:37;;;;;;;3.22;1.88;;;16.10;69.80;;;;;;10501038;28;20036;-56
2020/12/21 02:45:37;;;;;;;1.42;1.00;;;16.10;69.80;;;;;;10501231;28;20542;-56
2020/12/21 02:50:38;;;;;;;2.30;1.38;;;16.10;69.90;;;;;;10502464;28;20024;-57
2020/12/21 02:55:39;;;;;;;2.53;1.90;;;16.10;69.90;;;;;;10500495;28;20112;-56
2020/12/21 03:00:40;;;;;;;3.38;1.45;;;16.10;69.80;;;;;;10500765;28;20464;-57
2020/12/21 03:05:41;;;;;;;2.28;1.60;;;16.10;69.90;;;;;;10501642;28;20170;-57
2020/12/21 03:10:42;;;;;;;4.07;1.45;;;16.00;69.80;;;;;;10501590;28;20116;-56
2020/12/21 03:15:43;;;;;;;2.53;1.70;;;16.00;69.80;;;;;;10501418;28;20044;-57
2020/12/21 03:20:44;;;;;;;4.43;1.38;;;16.00;69.80;;;;;;10501288;28;20025;-56
2020/12/21 03:25:44;;;;;;;2.03;1.23;;;16.00;69.80;;;;;;10493730;28;20111;-55
2020/12/21 03:30:45;;;;;;;2.75;1.60;;;16.00;69.80;;;;;;10498134;28;20031;-57
2020/12/21 03:35:46;;;;;;;4.32;1.60;;;16.00;69.80;;;;;;10500503;28;20085;-56
2020/12/21 03:40:46;;;;;;;3.75;1.30;;;16.00;69.70;;;;;;10500395;28;20031;-57
2020/12/21 03:45:49;;;;;;;2.15;1.20;;;16.00;69.80;;;;;;10500047;28;20099;-56
2020/12/21 03:50:49;;;;;;;3.17;2.05;;;16.00;70.50;;;;;;10499957;28;20033;-57
2020/12/21 03:55:50;;;;;;;1.85;1.23;;;16.00;69.80;;;;;;10499650;28;20037;-57
2020/12/21 04:00:51;;;;;;;2.10;1.25;;;15.90;69.80;;;;;;10499522;28;20108;-56
2020/12/21 04:05:51;;;;;;;2.45;1.13;;;15.90;69.80;;;;;;10498639;28;20145;-56
2020/12/21 04:10:52;;;;;;;2.90;1.30;;;15.90;69.80;;;;;;10499234;28;20064;-57
2020/12/21 04:15:53;;;;;;;2.58;1.17;;;15.90;69.80;;;;;;10498824;28;20032;-57
2020/12/21 04:20:54;;;;;;;2.35;1.27;;;15.90;69.80;;;;;;10497927;28;20040;-57
2020/12/21 04:25:55;;;;;;;2.85;1.25;;;15.90;69.80;;;;;;10498059;28;20111;-57
2020/12/21 04:30:56;;;;;;;2.50;1.38;;;15.80;69.70;;;;;;10490219;28;20487;-56
2020/12/21 04:35:57;;;;;;;2.38;1.00;;;15.90;69.70;;;;;;10496732;28;20362;-55
2020/12/21 04:40:58;;;;;;;2.30;1.38;;;15.80;69.70;;;;;;10496715;28;20025;-56
2020/12/21 04:46:04;;;;;;;2.35;1.15;;;15.80;69.70;;;;;;10497510;28;20039;-56
2020/12/21 04:51:07;;;;;;;2.78;1.55;;;15.80;69.70;;;;;;10497675;28;20029;-56
2020/12/21 04:56:08;;;;;;;3.35;1.25;;;15.80;69.70;;;;;;10497406;28;20047;-55
2020/12/21 05:01:09;;;;;;;1.63;0.98;;;15.80;69.70;;;;;;10497381;28;20032;-57
2020/12/21 05:06:09;;;;;;;1.75;1.15;;;15.80;69.70;;;;;;10497080;28;20381;-56
2020/12/21 05:11:10;;;;;;;3.05;1.40;;;15.80;69.70;;;;;;10497248;28;20028;-56
2020/12/21 05:16:11;;;;;;;2.75;1.40;;;15.70;69.70;;;;;;10496209;28;20029;-57
2020/12/21 05:21:12;;;;;;;3.15;1.60;;;15.80;69.70;;;;;;10496745;28;20063;-56
2020/12/21 05:26:13;;;;;;;3.17;1.63;;;15.70;69.60;;;;;;10497093;28;20425;-55
2020/12/21 05:31:14;;;;;;;2.40;1.10;;;15.70;69.60;;;;;;10492861;28;20040;-57
2020/12/21 05:36:24;;;;;;;2.17;1.33;;;15.70;69.70;;;;;;10482938;28;20479;-56
2020/12/21 05:41:25;;;;;;;1.92;1.10;;;15.70;69.70;;;;;;10473157;28;20021;-57
2020/12/21 05:46:26;;;;;;;2.55;1.25;;;15.70;69.60;;;;;;10470876;28;20410;-57
2020/12/21 05:51:37;;;;;;;3.47;1.25;;;15.70;69.70;;;;;;10464720;28;20028;-57
2020/12/21 05:56:38;;;;;;;1.98;1.02;;;15.70;69.70;;;;;;10460608;28;20458;-57
2020/12/21 06:01:39;;;;;;;2.28;1.40;;;15.70;69.60;;;;;;10478931;28;20029;-57
2020/12/21 06:06:45;;;;;;;1.70;1.00;;;15.60;69.60;;;;;;10487881;28;20123;-56
2020/12/21 06:11:46;;;;;;;2.47;1.20;;;15.70;69.70;;;;;;10494480;28;20139;-57
2020/12/21 06:16:48;;;;;;;2.25;1.10;;;15.60;69.60;;;;;;10495808;28;20112;-56
2020/12/21 06:21:54;;;;;;;2.88;0.82;;;15.60;69.60;;;;;;10495578;28;20443;-57
2020/12/21 06:26:54;;;;;;;2.28;1.23;;;15.60;69.60;;;;;;10496058;28;20028;-57
2020/12/21 06:32:03;;;;;;;1.90;1.10;;;15.60;69.60;;;;;;10495489;28;20032;-57
2020/12/21 06:37:09;;;;;;;2.08;0.80;;;16.50;74.10;;;;;;10500661;28;20060;-57
2020/12/21 06:42:21;;;;;;;6.40;1.15;;;21.20;57.40;;;;;;10501664;28;20039;-57
2020/12/21 06:47:24;;;;;;;5.13;1.73;;;23.60;50.30;;;;;;10498977;28;20031;-58
2020/12/21 06:52:25;;;;;;;5.45;1.25;;;24.80;46.90;;;;;;10516569;28;20039;-57
2020/12/21 06:57:25;;;;;;;4.47;1.80;;;25.90;44.10;;;;;;10499455;28;20490;-57
2020/12/21 07:02:26;;;;;;;5.07;1.25;;;26.40;43.60;;;;;;10499522;28;20572;-56
2020/12/21 07:07:27;;;;;;;6.88;1.25;;;26.90;42.70;;;;;;10495682;28;20040;-52
2020/12/21 07:12:28;;;;;;;7.53;1.35;;;27.30;41.70;;;;;;10515910;28;20032;-57
2020/12/21 07:17:31;;;;;;;6.35;1.42;;;27.70;40.70;;;;;;10499800;28;20027;-55
2020/12/21 07:22:32;;;;;;;10.15;2.20;;;27.80;40.60;;;;;;10501260;28;20380;-55
2020/12/21 07:27:33;;;;;;;5.43;1.08;;;27.90;39.80;;;;;;10501006;28;20051;-55
2020/12/21 07:32:33;;;;;;;4.30;1.30;;;27.80;40.20;;;;;;10500977;28;20073;-55
2020/12/21 07:37:34;;;;;;;5.90;1.20;;;27.60;40.80;;;;;;10500117;28;20024;-55
2020/12/21 07:42:39;;;;;;;4.18;1.05;;;27.70;40.20;;;;;;10496314;28;20091;-56
2020/12/21 07:47:41;;;;;;;16.77;2.00;;;27.40;40.50;;;;;;10486520;28;20028;-56
2020/12/21 07:52:42;;;;;;;8.57;1.67;;;27.60;40.90;;;;;;10490547;28;20028;-57
2020/12/21 07:57:43;;;;;;;9.63;1.30;;;27.40;40.90;;;;;;10499943;28;20039;-57
2020/12/21 08:02:49;;;;;;;8.55;1.73;;;27.70;40.10;;;;;;10494919;28;20050;-59
2020/12/21 08:07:49;;;;;;;8.98;2.25;;;27.70;39.50;;;;;;10496624;28;20058;-58
2020/12/21 08:12:50;;;;;;;11.40;2.03;;;27.50;40.20;;;;;;10497680;28;20500;-57
2020/12/21 08:17:52;;;;;;;4.05;1.75;;;27.50;40.20;;;;;;10498402;28;20068;-57
2020/12/21 08:22:53;;;;;;;5.15;1.50;;;27.40;40.30;;;;;;10497598;28;20024;-59
2020/12/21 08:27:54;;;;;;;4.72;2.13;;;27.30;40.50;;;;;;10460204;28;20123;-58
2020/12/21 08:32:55;;;;;;;5.05;1.50;;;27.20;40.30;;;;;;10497428;28;20035;-58
2020/12/21 08:38:11;;;;;;;8.73;1.83;;;27.30;40.60;;;;;;10494738;28;20702;-59
2020/12/21 08:43:12;;;;;;;5.97;1.50;;;27.30;40.60;;;;;;10496011;28;20040;-58
2020/12/21 08:48:12;;;;;;;6.82;1.35;;;27.40;40.60;;;;;;10496347;28;20520;-60
2020/12/21 08:53:13;;;;;;;4.85;1.48;;;27.50;40.50;;;;;;10490509;28;20102;-57
2020/12/21 08:58:14;;;;;;;5.70;1.35;;;27.60;40.20;;;;;;10497444;28;20024;-59
2020/12/21 09:03:14;;;;;;;3.85;1.42;;;25.50;41.90;;;;;;10495489;28;20107;-59
2020/12/21 09:08:15;;;;;;;6.53;2.08;;;21.40;50.90;;;;;;10495772;28;20195;-57
2020/12/21 09:13:16;;;;;;;4.38;1.55;;;19.60;56.40;;;;;;10494677;28;20457;-59
2020/12/21 09:18:17;;;;;;;7.53;1.63;;;18.70;59.40;;;;;;10492034;28;20027;-58
2020/12/21 09:23:18;;;;;;;4.13;1.33;;;18.30;60.90;;;;;;10493796;28;20035;-58
2020/12/21 09:28:19;;;;;;;4.80;1.27;;;18.00;61.90;;;;;;10504480;28;20024;-58
2020/12/21 09:33:20;;;;;;;3.70;1.10;;;17.90;62.50;;;;;;10496712;28;20044;-58
2020/12/21 09:38:20;;;;;;;4.38;1.02;;;17.80;63.10;;;;;;10496198;28;20028;-59
2020/12/21 09:43:21;;;;;;;4.07;1.85;;;17.60;63.50;;;;;;10496293;28;20397;-58
2020/12/21 09:48:22;;;;;;;2.95;1.52;;;17.60;63.70;;;;;;10493202;28;20031;-58
2020/12/21 09:53:23;;;;;;;5.55;1.40;;;17.50;63.90;;;;;;10492073;28;20461;-59
2020/12/21 09:58:23;;;;;;;3.33;1.42;;;17.50;64.40;;;;;;10495435;28;20055;-58
2020/12/21 10:03:24;;;;;;;5.78;1.27;;;17.50;64.40;;;;;;10499256;28;20055;-57
2020/12/21 10:08:25;;;;;;;4.65;1.20;;;17.50;64.60;;;;;;10503273;28;20141;-58
2020/12/21 10:13:25;;;;;;;3.35;1.02;;;17.40;64.80;;;;;;10503225;28;20111;-58
2020/12/21 10:18:27;;;;;;;4.10;1.05;;;17.40;64.80;;;;;;10503490;28;20035;-59
2020/12/21 10:23:27;;;;;;;3.05;1.02;;;17.40;64.80;;;;;;10493658;28;20052;-58
2020/12/21 10:28:29;;;;;;;2.78;1.02;;;17.40;64.80;;;;;;10503370;28;20067;-58
2020/12/21 10:33:29;;;;;;;4.35;1.00;;;17.40;65.00;;;;;;10501519;28;20028;-58
2020/12/21 10:38:31;;;;;;;3.47;1.15;;;17.40;65.20;;;;;;10517332;28;20108;-63
2020/12/21 10:43:32;;;;;;;3.38;1.20;;;17.40;65.10;;;;;;10499211;28;20036;-58
2020/12/21 10:48:33;;;;;;;7.65;1.58;;;17.40;65.80;;;;;;10500234;28;20027;-60
2020/12/21 10:53:33;;;;;;;7.88;1.73;;;17.40;66.00;;;;;;10500899;28;20033;-59
2020/12/21 10:58:34;;;;;;;7.18;1.70;;;17.40;66.20;;;;;;10496609;28;20357;-58
2020/12/21 11:03:35;;;;;;;8.70;1.58;;;17.30;66.50;;;;;;10471506;28;20542;-59
2020/12/21 11:08:37;;;;;;;12.27;1.80;;;17.30;66.60;;;;;;10479163;28;20132;-56
2020/12/21 11:13:41;;;;;;;20.95;2.72;;;17.50;66.80;;;;;;10497450;28;20025;-57
2020/12/21 11:18:42;;;;;;;7.07;1.85;;;17.60;66.20;;;;;;10482646;28;20021;-59
2020/12/21 11:23:43;;;;;;;12.00;2.45;;;17.80;66.10;;;;;;10501535;28;20028;-59
2020/12/21 11:28:44;;;;;;;11.73;2.35;;;17.80;66.20;;;;;;10486070;28;20064;-59
2020/12/21 11:33:44;;;;;;;13.05;2.47;;;17.80;66.70;;;;;;10496455;28;20082;-59
2020/12/21 11:38:45;;;;;;;12.10;1.50;;;17.70;66.60;;;;;;10500896;28;20021;-60
2020/12/21 11:43:46;;;;;;;8.52;2.05;;;17.70;66.80;;;;;;10496875;28;20111;-60
2020/12/21 11:48:47;;;;;;;11.73;1.90;;;17.70;66.90;;;;;;10498084;28;20027;-59
2020/12/21 11:53:47;;;;;;;6.47;1.60;;;17.70;67.10;;;;;;10498082;28;20029;-58
2020/12/21 11:58:49;;;;;;;8.90;2.35;;;17.70;66.90;;;;;;10492327;28;20116;-61
2020/12/21 12:03:50;;;;;;;8.70;1.83;;;17.70;67.10;;;;;;10496572;28;20506;-61
2020/12/21 12:08:53;;;;;;;11.48;2.28;;;17.70;67.30;;;;;;10495284;28;20185;-64
2020/12/21 12:13:53;;;;;;;10.38;1.67;;;17.70;67.20;;;;;;10494031;28;20068;-57
2020/12/21 12:18:54;;;;;;;6.28;1.48;;;17.70;67.10;;;;;;10469024;28;20056;-63
2020/12/21 12:23:55;;;;;;;12.82;2.05;;;17.70;67.10;;;;;;10477225;28;20036;-56
2020/12/21 12:28:56;;;;;;;15.77;2.75;;;17.70;67.30;;;;;;10476269;28;20119;-57
2020/12/21 12:33:57;;;;;;;9.45;1.50;;;17.70;67.10;;;;;;10468575;28;20021;-57
2020/12/21 12:38:57;;;;;;;10.35;2.30;;;17.70;67.10;;;;;;10484265;28;20127;-56
2020/12/21 12:43:58;;;;;;;12.90;1.70;;;17.70;67.10;;;;;;10496890;28;20029;-59
2020/12/21 12:49:01;;;;;;;8.13;1.65;;;17.70;66.90;;;;;;10486568;28;20135;-59
2020/12/21 12:54:05;;;;;;;8.82;2.42;;;17.70;67.10;;;;;;10476895;28;20033;-59
2020/12/21 12:59:06;;;;;;;8.48;1.60;;;17.70;67.00;;;;;;10496711;28;20028;-59
2020/12/21 13:04:07;;;;;;;11.70;2.20;;;17.60;66.80;;;;;;10495569;28;20469;-61
2020/12/21 13:09:07;;;;;;;8.30;2.17;;;17.70;66.90;;;;;;10484180;28;20040;-61
2020/12/21 13:14:08;;;;;;;4.80;1.38;;;17.70;66.80;;;;;;10491153;28;20112;-58
2020/12/21 13:19:11;;;;;;;7.45;1.48;;;17.70;66.40;;;;;;10476616;28;20123;-61
2020/12/21 13:24:12;;;;;;;9.02;1.92;;;17.60;66.60;;;;;;10511863;28;20032;-60
2020/12/21 13:29:13;;;;;;;10.32;2.08;;;17.60;66.70;;;;;;10478724;28;20048;-59
2020/12/21 13:34:13;;;;;;;6.45;1.73;;;17.70;66.60;;;;;;10496392;28;20060;-60
2020/12/21 13:39:14;;;;;;;7.60;1.98;;;17.60;66.80;;;;;;10495531;28;20031;-60
2020/12/21 13:44:15;;;;;;;5.60;1.98;;;17.60;67.00;;;;;;10496450;28;20154;-60
2020/12/21 13:49:15;;;;;;;4.95;1.30;;;17.70;66.80;;;;;;10496459;28;20081;-61
2020/12/21 13:54:16;;;;;;;10.38;2.80;;;17.60;66.90;;;;;;10496352;28;20116;-61
2020/12/21 13:59:17;;;;;;;11.13;1.77;;;17.70;66.90;;;;;;10495432;28;20048;-61
2020/12/21 14:04:18;;;;;;;7.38;1.85;;;17.80;66.70;;;;;;10490082;28;20780;-60
2020/12/21 14:09:18;;;;;;;6.60;1.90;;;18.20;65.50;;;;;;10494933;28;20417;-60
2020/12/21 14:14:19;;;;;;;6.60;1.67;;;18.50;64.50;;;;;;10491595;28;20116;-60
2020/12/21 14:19:20;;;;;;;9.07;1.13;;;18.60;64.20;;;;;;10491636;28;20036;-60
2020/12/21 14:24:21;;;;;;;13.68;2.63;;;18.60;64.00;;;;;;10481991;28;20116;-60
2020/12/21 14:29:22;;;;;;;9.02;1.55;;;18.50;64.20;;;;;;10482941;28;20029;-61
2020/12/21 14:34:22;;;;;;;6.47;1.73;;;18.40;64.80;;;;;;10494006;28;20115;-59
2020/12/21 14:39:23;;;;;;;15.73;2.40;;;18.30;65.20;;;;;;10495090;28;20115;-57
2020/12/21 14:44:24;;;;;;;8.95;1.77;;;18.30;65.90;;;;;;10493856;28;20055;-58
2020/12/21 14:49:24;;;;;;;9.68;1.85;;;18.20;66.10;;;;;;10497848;28;20036;-60
2020/12/21 14:54:25;;;;;;;22.05;2.45;;;18.20;66.10;;;;;;10497441;28;20029;-60
2020/12/21 14:59:26;;;;;;;12.73;1.70;;;18.10;66.00;;;;;;10496081;28;20077;-60
2020/12/21 15:04:27;;;;;;;6.53;1.50;;;18.30;65.60;;;;;;10500860;28;20476;-58
2020/12/21 15:09:27;;;;;;;6.20;1.35;;;18.40;65.00;;;;;;10500985;28;20499;-58
2020/12/21 15:14:28;;;;;;;7.72;1.80;;;18.50;64.60;;;;;;10495787;28;20560;-59
2020/12/21 15:19:29;;;;;;;5.72;1.25;;;18.50;64.80;;;;;;10490025;28;20025;-58
2020/12/21 15:24:30;;;;;;;3.97;1.17;;;18.50;64.60;;;;;;10495297;28;20108;-58
2020/12/21 15:29:32;;;;;;;6.22;2.15;;;18.40;64.90;;;;;;10498015;28;20427;-58
2020/12/21 15:34:32;;;;;;;5.75;1.20;;;18.40;64.80;;;;;;10500288;28;20035;-58
2020/12/21 15:39:33;;;;;;;7.18;1.35;;;18.40;65.00;;;;;;10500104;28;20442;-60
2020/12/21 15:44:34;;;;;;;4.82;1.13;;;18.40;64.70;;;;;;10492400;28;20025;-60
2020/12/21 15:49:34;;;;;;;4.25;1.58;;;18.40;65.00;;;;;;10499722;28;20066;-60
2020/12/21 15:54:35;;;;;;;4.05;1.02;;;18.40;64.90;;;;;;10499132;28;20115;-60
2020/12/21 15:59:36;;;;;;;5.75;0.90;;;18.40;65.00;;;;;;10497708;28;20484;-60
2020/12/21 16:04:36;;;;;;;8.32;1.30;;;18.40;65.70;;;;;;10498051;28;20112;-59
2020/12/21 16:09:38;;;;;;;7.57;1.67;;;18.40;66.20;;;;;;10498524;28;20053;-60
2020/12/21 16:14:38;;;;;;;3.78;1.45;;;18.30;65.90;;;;;;10499018;28;20046;-59
2020/12/21 16:19:39;;;;;;;8.95;1.75;;;18.30;65.60;;;;;;10499264;28;20056;-60
2020/12/21 16:24:41;;;;;;;4.60;1.50;;;18.30;65.90;;;;;;10498919;28;20016;-58
2020/12/21 16:29:42;;;;;;;7.45;1.65;;;18.20;66.30;;;;;;10498527;28;20039;-60
2020/12/21 16:34:43;;;;;;;11.15;1.88;;;18.30;66.50;;;;;;10498211;28;20025;-61
2020/12/21 16:39:58;;;;;;;11.27;1.95;;;18.30;66.70;;;;;;10465224;28;20048;-61
2020/12/21 16:45:00;;;;;;;8.80;1.08;;;18.30;67.20;;;;;;10498281;28;20059;-62
2020/12/21 16:50:02;;;;;;;11.13;2.60;;;18.40;67.10;;;;;;10497250;28;20024;-59
2020/12/21 16:55:03;;;;;;;12.80;3.95;;;23.10;62.10;;;;;;10495448;28;20522;-57
2020/12/21 17:00:07;;;;;;;16.17;4.85;;;26.70;50.90;;;;;;10496988;28;20060;-58
2020/12/21 17:05:07;;;;;;;11.60;4.72;;;28.30;46.90;;;;;;10495318;28;20552;-57
2020/12/21 17:10:08;;;;;;;10.95;3.85;;;29.40;44.50;;;;;;10495041;28;20128;-57
2020/12/21 17:15:09;;;;;;;6.80;3.45;;;29.80;43.10;;;;;;10495917;28;20400;-60
2020/12/21 17:20:09;;;;;;;6.63;3.85;;;30.20;42.30;;;;;;10497057;28;20029;-61
2020/12/21 17:25:10;;;;;;;7.78;2.80;;;30.50;41.40;;;;;;10496667;28;20112;-59
2020/12/21 17:30:11;;;;;;;7.93;2.78;;;30.60;40.50;;;;;;10496517;28;20056;-60
2020/12/21 17:35:12;;;;;;;10.43;2.78;;;31.20;39.20;;;;;;10492358;28;20043;-60
2020/12/21 17:40:12;;;;;;;8.48;3.10;;;31.30;39.30;;;;;;10495697;28;20103;-61
2020/12/21 17:45:13;;;;;;;11.48;2.90;;;31.10;40.10;;;;;;10496334;28;20043;-58
2020/12/21 17:50:14;;;;;;;8.55;2.20;;;30.80;40.50;;;;;;10496513;28;20024;-59
2020/12/21 17:55:15;;;;;;;22.20;3.60;;;30.80;40.30;;;;;;10495462;28;20028;-59
2020/12/21 18:00:16;;;;;;;10.30;2.65;;;30.60;40.60;;;;;;10495709;28;20039;-59
2020/12/21 18:05:17;;;;;;;13.30;3.65;;;30.50;40.60;;;;;;10495231;28;20100;-58
2020/12/21 18:10:17;;;;;;;12.45;2.60;;;30.50;40.80;;;;;;10494690;28;20496;-58
2020/12/21 18:15:18;;;;;;;12.52;2.15;;;30.50;40.50;;;;;;10493975;28;20081;-59
2020/12/21 18:20:19;;;;;;;12.57;2.75;;;30.40;40.80;;;;;;10493628;28;20028;-60
2020/12/21 18:25:19;;;;;;;7.88;2.42;;;30.40;40.70;;;;;;10487692;28;20028;-59
2020/12/21 18:30:20;;;;;;;8.27;2.00;;;30.40;40.60;;;;;;10482088;28;20033;-59
2020/12/21 18:35:21;;;;;;;7.78;2.00;;;30.50;40.20;;;;;;10479915;28;20388;-58
2020/12/21 18:40:21;;;;;;;10.05;2.13;;;30.40;40.50;;;;;;10500097;28;20441;-59
2020/12/21 18:45:22;;;;;;;9.85;2.50;;;30.50;40.60;;;;;;10502557;28;20051;-61
2020/12/21 18:50:23;;;;;;;9.07;2.28;;;30.70;40.00;;;;;;10502548;28;20540;-62
2020/12/21 18:55:24;;;;;;;5.75;1.38;;;30.60;40.30;;;;;;10481472;28;20470;-60
2020/12/21 19:00:25;;;;;;;7.20;1.60;;;30.80;39.70;;;;;;10494258;28;20054;-61
2020/12/21 19:05:26;;;;;;;7.40;1.55;;;30.80;40.00;;;;;;10496032;28;20024;-61
2020/12/21 19:10:26;;;;;;;7.57;1.50;;;30.60;40.10;;;;;;10496933;28;20037;-60
2020/12/21 19:15:27;;;;;;;4.68;1.50;;;30.40;40.30;;;;;;10479518;28;20120;-60
2020/12/21 19:20:29;;;;;;;7.03;1.63;;;30.50;40.00;;;;;;10494890;28;20028;-60
2020/12/21 19:25:30;;;;;;;6.53;1.98;;;30.50;40.20;;;;;;10501100;28;20431;-60
2020/12/21 19:30:30;;;;;;;6.22;1.30;;;30.50;40.30;;;;;;10501003;28;20109;-60
2020/12/21 19:35:31;;;;;;;4.03;1.15;;;30.50;40.00;;;;;;10496781;28;20137;-60
2020/12/21 19:40:32;;;;;;;6.50;1.98;;;30.40;40.40;;;;;;10499692;28;20119;-61
2020/12/21 19:45:33;;;;;;;4.05;1.73;;;30.40;40.40;;;;;;10500446;28;20086;-61
2020/12/21 19:50:34;;;;;;;5.75;1.60;;;30.60;40.00;;;;;;10500175;28;20123;-60
2020/12/21 19:55:34;;;;;;;3.05;1.23;;;30.40;40.50;;;;;;10498999;28;20026;-60
2020/12/21 20:00:35;;;;;;;3.33;1.05;;;30.60;40.20;;;;;;10499901;28;20524;-60
2020/12/21 20:05:36;;;;;;;3.10;1.42;;;30.50;40.30;;;;;;10487505;28;20070;-62
2020/12/21 20:10:36;;;;;;;2.38;1.00;;;30.60;39.80;;;;;;10493389;28;20123;-60
2020/12/21 20:15:37;;;;;;;5.38;1.15;;;30.50;40.20;;;;;;10498957;28;20147;-59
2020/12/21 20:20:39;;;;;;;4.57;1.38;;;30.40;40.50;;;;;;10485198;28;20143;-60
2020/12/21 20:25:40;;;;;;;7.22;1.08;;;30.30;40.50;;;;;;10478238;28;20547;-60
2020/12/21 20:30:40;;;;;;;6.10;0.95;;;30.30;40.70;;;;;;10465204;28;20020;-61
2020/12/21 20:35:41;;;;;;;2.13;1.13;;;30.20;40.70;;;;;;10467907;28;20025;-61
2020/12/21 20:40:42;;;;;;;1.90;0.88;;;30.20;40.70;;;;;;10482352;28;20021;-61
2020/12/21 20:45:44;;;;;;;5.22;1.45;;;30.90;38.60;;;;;;10487315;28;20032;-61
2020/12/21 20:50:45;;;;;;;3.60;1.10;;;30.50;39.80;;;;;;10488082;28;20035;-60
2020/12/21 20:55:45;;;;;;;2.88;1.05;;;25.30;45.30;;;;;;10496854;28;20043;-61
2020/12/21 21:00:46;;;;;;;4.93;1.42;;;22.10;53.00;;;;;;10496015;28;20028;-61
2020/12/21 21:05:47;;;;;;;4.20;1.30;;;20.40;58.00;;;;;;10493625;28;20420;-60
2020/12/21 21:10:47;;;;;;;4.63;1.27;;;19.50;61.10;;;;;;10494418;28;20544;-61
2020/12/21 21:15:49;;;;;;;3.08;1.30;;;19.00;62.90;;;;;;10496468;28;20100;-60
2020/12/21 21:20:52;;;;;;;6.45;1.30;;;18.60;64.00;;;;;;10494407;28;20036;-60
2020/12/21 21:25:53;;;;;;;1.83;1.02;;;18.40;65.10;;;;;;10494365;28;20025;-60
2020/12/21 21:30:54;;;;;;;1.60;0.60;;;18.10;65.60;;;;;;10494525;28;20025;-60
2020/12/21 21:35:55;;;;;;;4.20;1.13;;;18.00;66.20;;;;;;10495963;28;20116;-61
2020/12/21 21:40:55;;;;;;;2.65;1.05;;;17.90;66.70;;;;;;10496471;28;20099;-61
2020/12/21 21:45:56;;;;;;;3.00;1.17;;;17.80;66.90;;;;;;10496428;28;20465;-61
2020/12/21 21:50:57;;;;;;;3.17;1.00;;;17.70;67.20;;;;;;10496811;28;20103;-61
2020/12/21 21:55:57;;;;;;;1.67;0.80;;;17.60;67.40;;;;;;10496219;28;20153;-62
2020/12/21 22:01:00;;;;;;;2.40;0.88;;;17.50;67.60;;;;;;10495302;28;20099;-61
2020/12/21 22:06:01;;;;;;;1.58;0.80;;;17.50;67.70;;;;;;10504252;28;20086;-62
2020/12/21 22:11:01;;;;;;;1.38;0.80;;;17.50;67.90;;;;;;10504257;28;20418;-61
2020/12/21 22:16:03;;;;;;;2.53;1.10;;;17.40;67.90;;;;;;10503988;28;20036;-60
2020/12/21 22:21:04;;;;;;;2.13;1.10;;;17.40;68.00;;;;;;10502263;28;20029;-61
2020/12/21 22:26:04;;;;;;;3.10;0.80;;;17.30;68.10;;;;;;10503544;28;20059;-61
2020/12/21 22:31:05;;;;;;;1.55;0.75;;;17.30;68.20;;;;;;10501814;28;20548;-60
2020/12/21 22:36:07;;;;;;;1.13;0.70;;;17.30;68.30;;;;;;10503129;28;20028;-61
2020/12/21 22:41:08;;;;;;;2.55;0.95;;;17.30;68.40;;;;;;10503023;28;20147;-61
2020/12/21 22:46:09;;;;;;;1.95;0.88;;;17.20;68.40;;;;;;10502861;28;20043;-62
2020/12/21 22:51:09;;;;;;;0.80;0.50;;;17.20;68.50;;;;;;10502395;28;20028;-61
2020/12/21 22:56:10;;;;;;;2.38;0.60;;;17.20;68.60;;;;;;10502558;28;20029;-61
2020/12/21 23:01:11;;;;;;;1.40;0.73;;;17.10;68.60;;;;;;10502537;28;20036;-61
2020/12/21 23:06:11;;;;;;;1.52;0.60;;;17.10;68.50;;;;;;10501932;28;20040;-61
2020/12/21 23:11:12;;;;;;;1.45;0.50;;;17.10;68.60;;;;;;10502072;28;20425;-61
2020/12/21 23:16:13;;;;;;;2.33;0.80;;;17.10;68.60;;;;;;10501503;28;20078;-61
2020/12/21 23:21:14;;;;;;;1.35;0.70;;;17.00;68.60;;;;;;10501449;28;20066;-61
2020/12/21 23:26:18;;;;;;;2.50;0.90;;;17.00;68.60;;;;;;10501461;28;20527;-62
2020/12/21 23:31:19;;;;;;;2.45;0.88;;;17.00;68.70;;;;;;10501016;28;20044;-61
2020/12/21 23:36:19;;;;;;;1.52;0.70;;;17.00;68.70;;;;;;10500840;28;20384;-61
2020/12/21 23:41:20;;;;;;;1.65;0.70;;;17.00;68.70;;;;;;10500683;28;20100;-61
2020/12/21 23:46:21;;;;;;;1.33;0.52;;;17.00;68.80;;;;;;10500400;28;20024;-61
2020/12/21 23:51:24;;;;;;;1.10;0.50;;;17.00;68.80;;;;;;10500316;28;20028;-60
2020/12/21 23:56:25;;;;;;;1.63;0.60;;;17.00;68.90;;;;;;10499966;28;20412;-62
